createdAt,value
2023-09-27T00:02:12.120Z,102456.28
2023-09-27T00:05:18.210Z,102451.72
2023-09-27T00:08:22.595Z,102451.63
2023-09-27T00:11:26.611Z,102447.38
2023-09-27T00:14:30.554Z,102449.00
2023-09-27T00:17:35.942Z,102450.81
2023-09-27T00:20:39.766Z,102452.09
2023-09-27T00:23:43.818Z,102444.81
2023-09-27T00:26:47.621Z,102442.31
2023-09-27T00:29:52.620Z,102455.13
2023-09-27T00:32:57.870Z,102437.97
2023-09-27T00:36:03.414Z,102442.50
2023-09-27T00:39:07.322Z,102439.13
2023-09-27T00:42:11.440Z,102434.00
2023-09-27T00:45:15.196Z,102427.16
2023-09-27T00:48:20.382Z,102421.59
2023-09-27T00:51:25.512Z,102413.91
2023-09-27T00:54:29.562Z,102419.94
2023-09-27T00:57:33.328Z,102419.13
2023-09-27T01:00:38.720Z,102419.94
2023-09-27T01:03:43.965Z,102419.69
2023-09-27T01:06:50.324Z,102427.41
2023-09-27T01:09:54.244Z,102420.59
2023-09-27T01:12:58.492Z,102417.56
2023-09-27T01:16:05.770Z,102425.97
2023-09-27T01:19:11.140Z,102430.97
2023-09-27T01:22:15.706Z,102429.97
2023-09-27T01:25:23.714Z,102426.06
2023-09-27T01:28:27.600Z,102420.81
2023-09-27T01:31:31.421Z,102408.03
2023-09-27T01:34:35.171Z,102420.03
2023-09-27T01:37:39.503Z,102403.44
2023-09-27T01:40:45.691Z,102398.13
2023-09-27T01:43:49.587Z,102384.53
2023-09-27T01:46:53.624Z,102386.94
2023-09-27T01:49:58.040Z,102379.97
2023-09-27T01:53:04.376Z,102368.69
2023-09-27T01:56:09.823Z,102377.25
2023-09-27T01:59:13.657Z,102375.41
2023-09-27T02:02:17.525Z,102374.88
2023-09-27T02:05:21.453Z,102377.69
2023-09-27T02:08:25.290Z,102376.81
2023-09-27T02:11:30.542Z,102368.03
2023-09-27T02:14:34.446Z,102374.06
2023-09-27T02:17:38.697Z,102373.97
2023-09-27T02:20:42.617Z,102378.94
2023-09-27T02:23:46.785Z,102362.56
2023-09-27T02:26:51.951Z,102358.38
2023-09-27T02:29:55.738Z,102358.47
2023-09-27T02:32:59.497Z,102355.88
2023-09-27T02:36:03.306Z,102362.09
2023-09-27T02:39:07.223Z,102353.53
2023-09-27T02:42:13.544Z,102354.13
2023-09-27T02:45:17.505Z,102350.09
2023-09-27T02:48:21.561Z,102344.69
2023-09-27T02:51:25.390Z,102347.09
2023-09-27T02:54:29.779Z,102346.19
2023-09-27T02:57:34.959Z,102340.09
2023-09-27T03:00:38.763Z,102341.34
2023-09-27T03:03:42.630Z,102342.16
2023-09-27T03:06:50.323Z,102333.28
2023-09-27T03:09:54.306Z,102338.06
2023-09-27T03:13:00.359Z,102328.91
2023-09-27T03:16:05.410Z,102329.81
2023-09-27T03:19:10.101Z,102326.28
2023-09-27T03:22:14.456Z,102321.53
2023-09-27T03:25:19.217Z,102324.84
2023-09-27T03:28:24.458Z,102325.78
2023-09-27T03:31:28.662Z,102321.13
2023-09-27T03:34:33.453Z,102320.81
2023-09-27T03:37:37.185Z,102316.97
2023-09-27T03:40:42.110Z,102306.56
2023-09-27T03:43:47.722Z,102297.34
2023-09-27T03:46:52.110Z,102298.00
2023-09-27T03:49:56.222Z,102296.19
2023-09-27T03:53:03.804Z,102296.28
2023-09-27T03:56:07.796Z,102298.19
2023-09-27T03:59:14.997Z,102286.94
2023-09-27T04:02:19.135Z,102300.91
2023-09-27T04:05:26.770Z,102292.03
2023-09-27T04:08:30.696Z,102290.28
2023-09-27T04:11:34.576Z,102290.56
2023-09-27T04:14:40.274Z,102287.25
2023-09-27T04:17:44.257Z,102283.63
2023-09-27T04:20:48.271Z,102298.72
2023-09-27T04:23:55.845Z,102287.31
2023-09-27T04:26:59.559Z,102288.41
2023-09-27T04:30:08.173Z,102288.44
2023-09-27T04:33:12.032Z,102285.91
2023-09-27T04:36:18.538Z,102287.25
2023-09-27T04:39:22.467Z,102285.38
2023-09-27T04:42:26.464Z,102287.06
2023-09-27T04:45:31.781Z,102278.63
2023-09-27T04:48:35.520Z,102278.09
2023-09-27T04:51:39.654Z,102271.75
2023-09-27T04:54:43.803Z,102270.69
2023-09-27T04:57:47.843Z,102263.81
2023-09-27T05:00:53.032Z,102255.97
2023-09-27T05:03:56.956Z,102248.25
2023-09-27T05:07:00.773Z,102247.06
2023-09-27T05:10:05.322Z,102249.50
2023-09-27T05:13:09.045Z,102251.66
2023-09-27T05:16:15.325Z,102253.94
2023-09-27T05:19:19.286Z,102247.16
2023-09-27T05:22:23.107Z,102259.94
2023-09-27T05:25:26.869Z,102236.00
2023-09-27T05:28:31.062Z,102233.47
2023-09-27T05:31:36.329Z,102235.00
2023-09-27T05:34:40.063Z,102234.41
2023-09-27T05:37:44.429Z,102242.94
2023-09-27T05:40:48.198Z,102239.97
2023-09-27T05:43:51.946Z,102249.53
2023-09-27T05:46:57.628Z,102244.22
2023-09-27T05:50:01.694Z,102228.50
2023-09-27T05:53:06.663Z,102220.59
2023-09-27T05:56:10.441Z,102216.16
2023-09-27T05:59:15.891Z,102220.56
2023-09-27T06:02:21.764Z,102212.22
2023-09-27T06:05:25.548Z,102212.69
2023-09-27T06:08:29.949Z,102208.47
2023-09-27T06:11:33.977Z,102205.66
2023-09-27T06:14:37.904Z,102204.06
2023-09-27T06:17:44.653Z,102198.59
2023-09-27T06:20:48.668Z,102189.88
2023-09-27T06:23:52.540Z,102184.81
2023-09-27T06:26:56.356Z,102200.41
2023-09-27T06:30:00.110Z,102201.19
2023-09-27T06:33:05.773Z,102200.28
2023-09-27T06:36:10.126Z,102187.91
2023-09-27T06:39:14.822Z,102194.00
2023-09-27T06:42:20.516Z,102195.50
2023-09-27T06:45:24.726Z,102203.75
2023-09-27T06:48:30.545Z,102203.00
2023-09-27T06:51:34.468Z,102224.81
2023-09-27T06:54:39.281Z,102220.78
2023-09-27T06:57:43.215Z,102237.09
2023-09-27T07:00:46.957Z,102217.13
2023-09-27T07:03:52.310Z,102208.88
2023-09-27T07:06:56.352Z,102191.69
2023-09-27T07:10:00.083Z,102171.84
2023-09-27T07:13:03.955Z,102182.50
2023-09-27T07:16:21.697Z,102163.25
2023-09-27T07:19:27.709Z,102152.13
2023-09-27T07:22:32.465Z,102130.16
2023-09-27T07:25:39.170Z,102131.75
2023-09-27T07:28:43.460Z,102142.66
2023-09-27T07:31:47.631Z,102141.06
2023-09-27T07:34:54.271Z,102137.22
2023-09-27T07:37:59.437Z,102130.88
2023-09-27T07:41:03.297Z,102132.69
2023-09-27T07:44:08.679Z,102125.38
2023-09-27T07:47:12.611Z,102122.34
2023-09-27T07:50:18.004Z,102142.28
2023-09-27T07:53:21.988Z,102143.84
2023-09-27T07:56:27.739Z,102135.09
2023-09-27T07:59:32.423Z,102139.53
2023-09-27T08:02:36.362Z,102155.53
2023-09-27T08:05:45.201Z,102155.44
2023-09-27T08:08:49.326Z,102129.38
2023-09-27T08:11:53.236Z,102137.63
2023-09-27T08:14:57.474Z,102139.78
2023-09-27T08:18:01.383Z,102137.72
2023-09-27T08:21:06.914Z,102132.56
2023-09-27T08:24:10.659Z,102127.91
2023-09-27T08:27:14.470Z,102130.34
2023-09-27T08:30:18.556Z,102131.09
2023-09-27T08:33:22.395Z,102130.44
2023-09-27T08:36:27.518Z,102129.03
2023-09-27T08:39:32.111Z,102137.03
2023-09-27T08:42:36.268Z,102143.22
2023-09-27T08:45:40.462Z,102147.81
2023-09-27T08:48:44.288Z,102152.78
2023-09-27T08:51:49.453Z,102153.94
2023-09-27T08:54:54.189Z,102135.03
2023-09-27T08:57:58.899Z,102135.78
2023-09-27T09:01:02.797Z,102133.50
2023-09-27T09:04:08.157Z,102126.28
2023-09-27T09:07:13.482Z,102130.09
2023-09-27T09:10:18.143Z,102136.63
2023-09-27T09:13:24.306Z,102124.94
2023-09-27T09:16:28.246Z,102115.25
2023-09-27T09:19:41.566Z,102114.84
2023-09-27T09:22:51.630Z,102123.06
2023-09-27T09:25:57.923Z,102116.28
2023-09-27T09:29:02.028Z,102115.13
2023-09-27T09:32:09.965Z,102114.25
2023-09-27T09:35:13.785Z,102121.63
2023-09-27T09:38:27.697Z,102124.47
2023-09-27T09:41:45.971Z,102127.06
2023-09-27T09:45:01.216Z,102125.91
2023-09-27T09:48:07.855Z,102118.81
2023-09-27T09:51:12.780Z,102109.09
2023-09-27T09:54:30.080Z,102099.44
2023-09-27T09:57:51.773Z,102097.06
2023-09-27T10:00:59.559Z,102094.09
2023-09-27T10:04:05.715Z,102091.50
2023-09-27T10:07:10.097Z,102086.00
2023-09-27T10:10:15.627Z,102079.81
2023-09-27T10:13:20.228Z,102085.06
2023-09-27T10:16:25.612Z,102080.28
2023-09-27T10:19:30.637Z,102085.16
2023-09-27T10:22:34.771Z,102087.31
2023-09-27T10:25:40.105Z,102093.75
2023-09-27T10:29:11.627Z,102086.25
2023-09-27T10:32:18.833Z,102081.31
2023-09-27T10:35:23.532Z,102077.41
2023-09-27T10:38:27.317Z,102086.13
2023-09-27T10:41:49.746Z,102089.22
2023-09-27T10:44:55.002Z,102079.22
2023-09-27T10:48:16.915Z,102084.41
2023-09-27T10:51:20.744Z,102090.00
2023-09-27T10:54:25.091Z,102087.81
2023-09-27T10:57:30.919Z,102086.84
2023-09-27T11:00:34.780Z,102090.47
2023-09-27T11:03:38.553Z,102077.03
2023-09-27T11:06:46.907Z,102073.19
2023-09-27T11:09:52.974Z,102071.72
2023-09-27T11:13:13.119Z,102066.97
2023-09-27T11:16:19.607Z,102084.34
2023-09-27T11:19:30.824Z,102093.44
2023-09-27T11:22:34.573Z,102078.56
2023-09-27T11:25:39.269Z,102080.25
2023-09-27T11:28:44.535Z,102073.94
2023-09-27T11:31:56.582Z,102070.97
2023-09-27T11:35:01.290Z,102060.81
2023-09-27T11:38:12.354Z,102045.00
2023-09-27T11:41:17.982Z,102041.00
2023-09-27T11:44:24.817Z,102026.34
2023-09-27T11:47:28.700Z,102024.53
2023-09-27T11:50:32.625Z,102021.63
2023-09-27T11:53:37.568Z,102025.00
2023-09-27T11:56:42.136Z,102036.75
2023-09-27T11:59:48.112Z,102036.72
2023-09-27T12:02:57.618Z,102025.06
2023-09-27T12:06:02.358Z,102033.63
2023-09-27T12:09:07.234Z,102023.63
2023-09-27T12:12:11.474Z,102028.03
2023-09-27T12:15:17.128Z,102038.38
2023-09-27T12:18:22.018Z,102032.47
2023-09-27T12:21:25.884Z,102027.00
2023-09-27T12:24:29.610Z,102022.88
2023-09-27T12:27:33.414Z,102029.38
2023-09-27T12:30:38.797Z,102033.03
2023-09-27T12:33:42.617Z,102017.38
2023-09-27T12:36:46.415Z,102007.81
2023-09-27T12:39:50.136Z,101994.69
2023-09-27T12:42:53.910Z,102001.56
2023-09-27T12:45:59.161Z,102004.22
2023-09-27T12:49:04.579Z,101985.06
2023-09-27T12:52:08.357Z,101984.97
2023-09-27T12:55:12.548Z,101982.19
2023-09-27T12:58:16.352Z,101979.94
2023-09-27T13:01:21.929Z,101977.50
2023-09-27T13:04:25.847Z,101977.69
2023-09-27T13:07:30.634Z,101974.59
2023-09-27T13:10:36.171Z,101976.44
2023-09-27T13:13:40.208Z,101974.59
2023-09-27T13:16:45.410Z,101977.50
2023-09-27T13:19:49.175Z,101961.13
2023-09-27T13:22:52.932Z,101970.00
2023-09-27T13:25:57.912Z,101962.06
2023-09-27T13:29:01.854Z,101959.19
2023-09-27T13:32:07.030Z,101955.94
2023-09-27T13:35:10.987Z,101963.88
2023-09-27T13:38:14.856Z,101953.66
2023-09-27T13:41:18.630Z,101963.38
2023-09-27T13:44:23.075Z,101957.69
2023-09-27T13:47:28.353Z,101956.22
2023-09-27T13:50:35.170Z,101959.25
2023-09-27T13:53:39.053Z,101951.59
2023-09-27T13:56:42.922Z,101952.19
2023-09-27T13:59:47.226Z,101950.47
2023-09-27T14:02:52.397Z,101949.22
2023-09-27T14:05:56.237Z,101936.25
2023-09-27T14:09:00.118Z,101940.16
2023-09-27T14:12:04.721Z,101940.03
2023-09-27T14:15:11.363Z,101938.53
2023-09-27T14:18:17.585Z,101943.94
2023-09-27T14:21:21.533Z,101931.38
2023-09-27T14:24:25.348Z,101925.50
2023-09-27T14:27:29.580Z,101940.38
2023-09-27T14:30:33.309Z,101938.00
2023-09-27T14:33:38.702Z,101937.16
2023-09-27T14:36:42.445Z,101942.34
2023-09-27T14:39:46.214Z,101951.47
2023-09-27T14:42:50.069Z,101944.22
2023-09-27T14:45:54.186Z,101947.22
2023-09-27T14:48:59.320Z,101947.56
2023-09-27T14:52:03.061Z,101944.81
2023-09-27T14:55:08.572Z,101949.41
2023-09-27T14:58:13.556Z,101945.38
2023-09-27T15:01:18.986Z,101947.22
2023-09-27T15:04:24.659Z,101940.75
2023-09-27T15:07:28.711Z,101931.28
2023-09-27T15:10:33.102Z,101929.19
2023-09-27T15:13:36.875Z,101936.63
2023-09-27T15:16:40.853Z,101953.53
2023-09-27T15:19:46.395Z,101957.13
2023-09-27T15:22:51.543Z,101958.25
2023-09-27T15:25:55.911Z,101954.19
2023-09-27T15:29:01.355Z,101946.41
2023-09-27T15:32:05.550Z,101959.91
2023-09-27T15:35:11.225Z,101958.09
2023-09-27T15:38:14.939Z,101937.28
2023-09-27T15:41:18.819Z,101940.22
2023-09-27T15:44:22.588Z,101960.94
2023-09-27T15:47:26.369Z,101968.81
2023-09-27T15:50:31.587Z,101978.34
2023-09-27T15:53:35.796Z,101980.72
2023-09-27T15:56:39.622Z,101983.34
2023-09-27T15:59:43.356Z,101981.66
2023-09-27T16:02:48.126Z,101992.75
2023-09-27T16:05:53.724Z,102001.00
2023-09-27T16:08:57.580Z,102010.41
2023-09-27T16:12:03.199Z,102018.69
2023-09-27T16:15:08.687Z,102023.75
2023-09-27T16:18:12.447Z,102011.75
2023-09-27T16:21:19.636Z,102020.78
2023-09-27T16:24:23.714Z,102027.50
2023-09-27T16:27:28.059Z,102024.28
2023-09-27T16:30:32.374Z,102025.44
2023-09-27T16:33:37.415Z,102014.59
2023-09-27T16:36:45.449Z,102017.63
2023-09-27T16:39:50.728Z,102023.28
2023-09-27T16:42:54.514Z,102014.00
2023-09-27T16:45:58.368Z,102010.41
2023-09-27T16:49:02.142Z,102026.84
2023-09-27T16:52:07.336Z,102004.38
2023-09-27T16:55:12.253Z,101995.78
2023-09-27T16:58:16.221Z,101988.91
2023-09-27T17:01:20.048Z,102000.03
2023-09-27T17:04:23.897Z,102028.66
2023-09-27T17:07:34.007Z,102054.81
2023-09-27T17:10:37.915Z,102049.50
2023-09-27T17:13:41.755Z,102045.16
2023-09-27T17:16:45.621Z,102029.91
2023-09-27T17:19:49.985Z,101993.78
2023-09-27T17:22:55.541Z,102017.28
2023-09-27T17:25:59.406Z,102003.34
2023-09-27T17:29:03.254Z,101996.81
2023-09-27T17:32:07.039Z,102001.91
2023-09-27T17:35:11.909Z,102006.47
2023-09-27T17:38:17.764Z,101998.78
2023-09-27T17:41:21.520Z,101987.56
2023-09-27T17:44:25.480Z,101999.50
2023-09-27T17:47:29.283Z,101999.69
2023-09-27T17:50:34.073Z,102004.72
2023-09-27T17:53:39.189Z,102010.22
2023-09-27T17:56:42.930Z,102018.81
2023-09-27T17:59:46.812Z,102027.63
2023-09-27T18:02:51.137Z,102017.81
2023-09-27T18:05:55.026Z,102029.59
2023-09-27T18:09:00.307Z,102026.16
2023-09-27T18:12:04.446Z,102031.41
2023-09-27T18:15:21.457Z,102023.69
2023-09-27T18:18:31.321Z,102030.97
2023-09-27T18:21:35.000Z,102025.91
2023-09-27T18:24:40.387Z,102036.25
2023-09-27T18:27:44.119Z,102035.47
2023-09-27T18:30:47.859Z,102032.94
2023-09-27T18:33:52.018Z,102035.63
2023-09-27T18:36:55.888Z,102034.19
2023-09-27T18:40:01.060Z,102019.88
2023-09-27T18:43:05.285Z,102031.31
2023-09-27T18:46:09.061Z,102033.78
2023-09-27T18:49:12.907Z,102030.78
2023-09-27T18:52:16.770Z,102035.22
2023-09-27T18:55:22.041Z,102027.06
2023-09-27T18:58:26.074Z,102028.66
2023-09-27T19:01:30.194Z,102031.06
2023-09-27T19:04:34.316Z,102031.59
2023-09-27T19:07:38.352Z,102040.94
2023-09-27T19:10:44.676Z,102031.31
2023-09-27T19:13:48.763Z,102025.75
2023-09-27T19:16:52.733Z,102036.81
2023-09-27T19:19:56.660Z,102041.09
2023-09-27T19:23:00.978Z,102050.13
2023-09-27T19:26:07.095Z,102060.66
2023-09-27T19:29:11.017Z,102055.47
2023-09-27T19:32:14.961Z,102051.16
2023-09-27T19:35:18.952Z,102062.50
2023-09-27T19:38:22.903Z,102061.91
2023-09-27T19:41:31.880Z,102067.91
2023-09-27T19:44:36.624Z,102070.50
2023-09-27T19:47:40.679Z,102077.56
2023-09-27T19:50:44.643Z,102075.75
2023-09-27T19:53:48.753Z,102081.03
2023-09-27T19:56:55.212Z,102085.13
2023-09-27T19:59:59.061Z,102085.19
2023-09-27T20:03:03.243Z,102089.44
2023-09-27T20:06:07.523Z,102085.38
2023-09-27T20:09:11.752Z,102086.47
2023-09-27T20:12:17.105Z,102085.63
2023-09-27T20:15:21.229Z,102093.56
2023-09-27T20:18:26.628Z,102092.38
2023-09-27T20:21:30.517Z,102096.94
2023-09-27T20:24:34.702Z,102097.78
2023-09-27T20:27:40.357Z,102088.16
2023-09-27T20:30:44.331Z,102096.59
2023-09-27T20:33:48.326Z,102090.53
2023-09-27T20:36:52.638Z,102102.97
2023-09-27T20:39:56.622Z,102100.28
2023-09-27T20:43:02.250Z,102102.16
2023-09-27T20:46:06.501Z,102085.56
2023-09-27T20:49:10.466Z,102084.72
2023-09-27T20:52:14.411Z,102075.06
2023-09-27T20:55:18.302Z,102070.91
2023-09-27T20:58:23.643Z,102072.44
2023-09-27T21:01:28.706Z,102084.28
2023-09-27T21:04:32.666Z,102084.19
2023-09-27T21:07:38.732Z,102086.91
2023-09-27T21:10:42.720Z,102085.38
2023-09-27T21:13:48.118Z,102091.03
2023-09-27T21:16:52.115Z,102099.00
2023-09-27T21:19:56.270Z,102106.84
2023-09-27T21:23:00.938Z,102104.38
2023-09-27T21:26:09.502Z,102104.91
2023-09-27T21:29:15.016Z,102102.63
2023-09-27T21:32:18.972Z,102107.91
2023-09-27T21:35:23.007Z,102107.97
2023-09-27T21:38:26.857Z,102101.06
2023-09-27T21:41:30.830Z,102100.28
2023-09-27T21:44:36.188Z,102095.19
2023-09-27T21:47:40.077Z,102095.91
2023-09-27T21:50:44.366Z,102106.28
2023-09-27T21:53:49.487Z,102097.63
2023-09-27T21:56:53.614Z,102092.38
2023-09-27T21:59:58.890Z,102096.91
2023-09-27T22:03:03.902Z,102081.53
2023-09-27T22:06:08.689Z,102091.25
2023-09-27T22:09:13.401Z,102097.47
2023-09-27T22:12:17.631Z,102096.63
2023-09-27T22:15:24.683Z,102093.91
2023-09-27T22:18:34.603Z,102089.66
2023-09-27T22:21:44.015Z,102087.25
2023-09-27T22:24:48.708Z,102086.50
2023-09-27T22:27:52.826Z,102094.19
2023-09-27T22:31:01.830Z,102099.59
2023-09-27T22:34:12.483Z,102099.72
2023-09-27T22:37:16.448Z,102102.13
2023-09-27T22:40:23.786Z,102097.00
2023-09-27T22:43:27.858Z,102105.22
2023-09-27T22:46:33.224Z,102103.66
2023-09-27T22:49:38.240Z,102097.63
2023-09-27T22:52:43.799Z,102097.56
2023-09-27T22:55:51.768Z,102090.03
2023-09-27T22:58:55.882Z,102100.53
2023-09-27T23:02:10.374Z,102079.88
2023-09-27T23:05:33.522Z,102071.47
2023-09-27T23:08:39.202Z,102084.75
2023-09-27T23:11:43.111Z,102086.50
2023-09-27T23:15:10.174Z,102083.94
2023-09-27T23:18:14.985Z,102082.28
2023-09-27T23:21:24.708Z,102085.81
2023-09-27T23:24:43.951Z,102094.38
2023-09-27T23:27:47.482Z,102086.69
2023-09-27T23:30:52.289Z,102099.53
2023-09-27T23:33:57.698Z,102096.16
2023-09-27T23:37:10.503Z,102093.84
2023-09-27T23:40:15.819Z,102094.03
2023-09-27T23:43:23.994Z,102085.28
2023-09-27T23:46:27.939Z,102091.56
2023-09-27T23:49:33.293Z,102086.47
2023-09-27T23:52:42.247Z,102080.47
2023-09-27T23:55:46.770Z,102084.13
2023-09-27T23:58:53.128Z,102073.91
